Time;durP1;ratioP1;P1;durP2;ratioP2;P2;SDS_P1;SDS_P2;PMS_P1;PMS_P2;Temp;Humidity;BMP_temperature;BMP_pressure;BME280_temperature;BME280_humidity;BME280_pressure;Samples;Min_cycle;Max_cycle;Signal;HPM_P1;HPM_P2
2022/04/14 00:00:35;;;;;;;19.25;13.57;;;13.80;99.90;;;;;;4972953;28;20188;-84
2022/04/14 00:03:00;;;;;;;19.58;13.40;;;13.70;99.90;;;;;;4978692;28;20033;-84
2022/04/14 00:05:26;;;;;;;13.52;9.70;;;14.10;99.90;;;;;;4974838;28;20413;-83
2022/04/14 00:07:51;;;;;;;15.05;8.90;;;13.60;99.90;;;;;;4961081;28;20038;-83
2022/04/14 00:10:20;;;;;;;17.02;11.05;;;13.70;99.90;;;;;;4975821;28;20042;-83
2022/04/14 00:12:48;;;;;;;18.52;13.20;;;13.60;99.90;;;;;;4996725;28;20037;-83
2022/04/14 00:15:13;;;;;;;14.55;10.85;;;13.60;99.90;;;;;;4999122;28;20033;-84
2022/04/14 00:17:39;;;;;;;13.55;8.75;;;13.60;99.90;;;;;;4980012;28;20414;-83
2022/04/14 00:20:06;;;;;;;11.68;8.13;;;13.80;99.90;;;;;;4976212;28;20041;-83
2022/04/14 00:22:32;;;;;;;14.70;8.13;;;13.40;99.90;;;;;;4980110;28;20092;-83
2022/04/14 00:24:58;;;;;;;14.95;7.88;;;13.40;99.90;;;;;;4978668;28;20048;-83
2022/04/14 00:27:23;;;;;;;12.65;7.38;;;13.20;99.90;;;;;;4976747;28;20038;-83
2022/04/14 00:29:49;;;;;;;14.30;7.78;;;13.80;99.90;;;;;;4975390;28;20112;-83
2022/04/14 00:32:15;;;;;;;9.80;6.75;;;13.50;99.90;;;;;;4961373;28;20715;-84
2022/04/14 00:34:40;;;;;;;9.55;6.55;;;13.20;99.90;;;;;;4975767;28;20041;-83
2022/04/14 00:37:07;;;;;;;8.55;6.40;;;13.20;99.90;;;;;;4982639;28;20116;-83
2022/04/14 00:39:32;;;;;;;9.10;6.57;;;13.40;99.90;;;;;;4981035;28;20033;-83
2022/04/14 00:42:01;;;;;;;8.00;6.22;;;13.20;99.90;;;;;;5000709;28;20037;-84
2022/04/14 00:44:26;;;;;;;10.65;5.90;;;13.20;99.90;;;;;;4968901;28;20452;-83
2022/04/14 00:46:52;;;;;;;10.10;6.13;;;13.10;99.90;;;;;;4980659;28;20044;-84
2022/04/14 00:49:19;;;;;;;10.38;6.95;;;13.10;99.90;;;;;;4997521;28;20048;-84
2022/04/14 00:51:44;;;;;;;10.10;5.90;;;13.10;99.90;;;;;;4979678;28;20050;-84
2022/04/14 00:54:10;;;;;;;15.27;6.68;;;13.10;99.90;;;;;;5010295;28;20392;-83
2022/04/14 00:56:35;;;;;;;8.98;6.43;;;13.10;99.90;;;;;;4979993;28;20034;-83
2022/04/14 00:59:01;;;;;;;10.30;6.85;;;13.10;99.90;;;;;;4992527;28;20034;-83
2022/04/14 01:01:26;;;;;;;12.02;7.05;;;13.10;99.90;;;;;;4998262;28;20029;-84
2022/04/14 01:03:53;;;;;;;12.50;7.35;;;13.00;99.90;;;;;;4977853;28;20361;-84
2022/04/14 01:06:20;;;;;;;8.32;6.00;;;13.10;99.90;;;;;;4976216;28;20158;-84
2022/04/14 01:09:16;;;;;;;10.48;7.25;;;13.00;99.90;;;;;;4980907;28;20141;-84
2022/04/14 01:11:31;;;;;;;11.53;6.43;;;12.70;99.90;;;;;;4999516;28;20034;-84
2022/04/14 01:13:56;;;;;;;10.63;7.57;;;13.00;99.90;;;;;;4979255;28;20764;-84
2022/04/14 01:16:22;;;;;;;8.93;7.03;;;12.90;99.90;;;;;;4978512;28;20398;-84
2022/04/14 01:18:47;;;;;;;10.35;7.93;;;12.90;99.90;;;;;;4975956;28;20037;-84
2022/04/14 01:21:13;;;;;;;14.70;6.97;;;12.90;99.90;;;;;;4980347;28;20101;-84
2022/04/14 01:23:42;;;;;;;14.50;7.93;;;12.90;99.90;;;;;;4977597;28;20105;-84
2022/04/14 01:26:08;;;;;;;12.18;8.20;;;12.30;99.90;;;;;;4992551;28;20052;-84
2022/04/14 01:28:33;;;;;;;11.90;8.50;;;12.80;99.90;;;;;;4997954;28;20026;-84
2022/04/14 01:30:59;;;;;;;10.30;7.30;;;12.00;99.90;;;;;;4989456;28;20035;-84
2022/04/14 01:33:24;;;;;;;9.48;6.50;;;12.20;99.90;;;;;;4977950;28;20418;-84
2022/04/14 01:35:50;;;;;;;5.53;3.75;;;12.80;99.90;;;;;;4995272;28;20056;-84
2022/04/14 01:38:16;;;;;;;5.15;4.25;;;12.80;99.90;;;;;;4997207;28;20552;-84
2022/04/14 01:40:41;;;;;;;7.63;5.05;;;12.80;99.90;;;;;;4974694;28;20034;-84
2022/04/14 01:43:07;;;;;;;5.18;4.07;;;12.20;99.90;;;;;;4974323;28;20505;-84
2022/04/14 01:45:32;;;;;;;5.43;3.88;;;13.50;99.90;;;;;;4976211;28;20030;-84
2022/04/14 01:47:58;;;;;;;4.03;2.67;;;12.80;99.90;;;;;;4977202;28;20385;-85
2022/04/14 01:50:23;;;;;;;3.17;2.70;;;12.70;99.90;;;;;;4978327;28;20076;-84
2022/04/14 01:52:49;;;;;;;6.53;3.72;;;12.70;99.90;;;;;;4980226;28;20040;-85
2022/04/14 01:55:15;;;;;;;6.90;5.22;;;12.10;99.90;;;;;;4977905;28;20039;-84
2022/04/14 01:57:41;;;;;;;6.18;4.30;;;12.40;99.90;;;;;;4995943;28;20401;-84
2022/04/14 02:00:10;;;;;;;8.35;4.60;;;13.40;99.90;;;;;;4991733;28;20065;-84
2022/04/14 02:02:36;;;;;;;7.65;5.28;;;12.90;99.90;;;;;;4979463;28;20536;-84
2022/04/14 02:05:02;;;;;;;8.98;4.93;;;12.90;99.90;;;;;;4974018;28;20068;-84
2022/04/14 02:07:27;;;;;;;9.63;5.50;;;13.70;99.90;;;;;;4975223;28;20038;-84
2022/04/14 02:09:53;;;;;;;8.98;4.82;;;12.80;99.90;;;;;;4997048;28;20599;-84
2022/04/14 02:12:18;;;;;;;7.80;6.18;;;12.80;99.90;;;;;;4968489;28;20123;-84
2022/04/14 02:14:44;;;;;;;7.18;5.45;;;12.90;99.90;;;;;;4980418;28;20029;-84
2022/04/14 02:17:09;;;;;;;10.18;6.53;;;12.80;99.90;;;;;;4993939;28;20029;-84
2022/04/14 02:19:35;;;;;;;10.88;7.63;;;12.80;99.90;;;;;;4976469;28;20224;-84
2022/04/14 02:22:00;;;;;;;9.65;5.68;;;12.80;99.90;;;;;;4979962;28;20349;-84
2022/04/14 02:24:26;;;;;;;18.73;12.73;;;12.80;99.90;;;;;;5012279;28;20034;-84
2022/04/14 02:26:52;;;;;;;14.90;9.13;;;12.80;99.90;;;;;;4990318;28;20121;-84
2022/04/14 02:29:18;;;;;;;12.30;8.10;;;12.70;99.90;;;;;;4986048;28;20060;-84
2022/04/14 02:31:44;;;;;;;20.75;12.35;;;12.80;99.90;;;;;;4991119;28;20033;-84
2022/04/14 02:34:09;;;;;;;12.75;9.38;;;12.90;99.90;;;;;;4991542;28;20359;-84
2022/04/14 02:36:35;;;;;;;14.55;9.10;;;12.50;99.90;;;;;;4973965;28;20046;-84
2022/04/14 02:39:00;;;;;;;14.35;9.35;;;12.70;99.90;;;;;;4978447;28;20503;-84
2022/04/14 02:41:26;;;;;;;12.80;8.38;;;12.80;99.90;;;;;;4979565;28;20497;-84
2022/04/14 02:43:51;;;;;;;16.10;10.85;;;12.50;99.90;;;;;;4992630;28;20393;-83
2022/04/14 02:46:17;;;;;;;13.45;10.35;;;12.60;99.90;;;;;;4973818;28;20678;-84
2022/04/14 02:48:42;;;;;;;23.70;15.50;;;12.60;99.90;;;;;;4978738;28;20029;-84
2022/04/14 02:51:08;;;;;;;14.82;10.00;;;12.50;99.90;;;;;;4994584;28;20034;-84
2022/04/14 02:53:33;;;;;;;20.60;12.60;;;12.60;99.90;;;;;;4994909;28;20030;-84
2022/04/14 02:55:59;;;;;;;23.45;15.05;;;12.60;99.90;;;;;;4990239;28;20022;-84
2022/04/14 02:58:25;;;;;;;21.77;15.00;;;12.60;99.90;;;;;;4975916;28;20113;-84
2022/04/14 03:00:50;;;;;;;15.68;11.32;;;12.60;99.90;;;;;;4981068;28;20030;-84
2022/04/14 03:03:16;;;;;;;11.73;8.57;;;12.80;99.90;;;;;;4981456;28;20497;-84
2022/04/14 03:05:42;;;;;;;19.65;10.90;;;12.90;99.90;;;;;;4975852;28;20125;-84
2022/04/14 03:08:08;;;;;;;17.10;11.32;;;12.30;99.90;;;;;;4979708;28;20569;-84
2022/04/14 03:10:33;;;;;;;18.77;12.40;;;12.40;99.90;;;;;;4977233;28;20056;-84
2022/04/14 03:12:59;;;;;;;13.80;9.45;;;12.60;99.90;;;;;;4979460;28;20088;-84
2022/04/14 03:15:24;;;;;;;17.70;11.82;;;12.10;99.90;;;;;;4975535;28;20037;-84
2022/04/14 03:17:50;;;;;;;17.27;11.80;;;12.70;99.90;;;;;;4978859;28;20045;-85
2022/04/14 03:20:16;;;;;;;17.80;12.40;;;12.60;99.90;;;;;;4988740;28;20022;-82
2022/04/14 03:22:41;;;;;;;20.95;14.68;;;12.60;99.90;;;;;;4974101;28;20380;-82
2022/04/14 03:25:08;;;;;;;15.88;11.00;;;12.50;99.90;;;;;;4975645;28;20373;-82
2022/04/14 03:27:34;;;;;;;16.55;11.30;;;12.50;99.90;;;;;;4991624;28;20038;-82
2022/04/14 03:30:00;;;;;;;16.60;10.02;;;13.10;99.90;;;;;;4975778;28;20049;-82
2022/04/14 03:32:25;;;;;;;21.23;13.98;;;13.10;99.90;;;;;;4976749;28;20037;-82
2022/04/14 03:34:53;;;;;;;12.43;10.02;;;12.50;99.90;;;;;;4974981;28;20038;-82
2022/04/14 03:37:19;;;;;;;16.80;11.43;;;12.40;99.90;;;;;;4973898;28;20065;-82
2022/04/14 03:39:45;;;;;;;19.85;12.93;;;12.40;99.90;;;;;;4985654;28;20033;-82
2022/04/14 03:42:11;;;;;;;22.65;14.05;;;12.50;99.90;;;;;;4970246;28;20649;-82
2022/04/14 03:44:36;;;;;;;16.45;11.20;;;12.40;99.90;;;;;;4972181;28;20069;-82
2022/04/14 03:47:02;;;;;;;15.15;9.70;;;12.40;99.90;;;;;;4973170;28;20122;-84
2022/04/14 03:49:28;;;;;;;22.15;12.60;;;12.50;99.90;;;;;;4974354;28;20089;-84
2022/04/14 03:51:55;;;;;;;15.77;11.10;;;12.40;99.90;;;;;;4989310;28;20041;-84
2022/04/14 03:54:21;;;;;;;13.68;9.27;;;12.40;99.90;;;;;;4977598;28;20030;-84
2022/04/14 03:56:48;;;;;;;23.25;15.65;;;11.80;99.90;;;;;;4990005;28;20026;-84
2022/04/14 03:59:14;;;;;;;22.17;12.82;;;12.30;99.90;;;;;;4991220;28;20381;-84
2022/04/14 04:01:40;;;;;;;28.20;16.25;;;12.30;99.90;;;;;;4982531;28;20105;-85
2022/04/14 04:04:05;;;;;;;16.80;12.10;;;12.20;99.90;;;;;;4975602;28;20117;-85
2022/04/14 04:06:31;;;;;;;14.77;10.77;;;12.10;99.90;;;;;;4974819;28;20033;-84
2022/04/14 04:08:57;;;;;;;31.17;17.05;;;12.10;99.90;;;;;;4988329;28;20030;-84
2022/04/14 04:11:22;;;;;;;23.38;15.05;;;12.10;99.90;;;;;;4977851;28;20547;-84
2022/04/14 04:13:48;;;;;;;17.17;12.05;;;12.10;99.90;;;;;;4976827;28;20034;-85
2022/04/14 04:16:13;;;;;;;30.25;18.05;;;12.10;99.90;;;;;;4973067;28;20036;-84
2022/04/14 04:18:39;;;;;;;28.88;18.50;;;12.00;99.90;;;;;;4973431;28;20058;-84
2022/04/14 04:21:04;;;;;;;20.83;13.70;;;12.80;99.90;;;;;;4982311;28;20034;-84
2022/04/14 04:23:30;;;;;;;24.50;16.08;;;11.90;99.90;;;;;;4983491;28;20529;-84
2022/04/14 04:25:55;;;;;;;17.95;12.10;;;12.00;99.90;;;;;;4990450;28;20034;-84
2022/04/14 04:28:21;;;;;;;22.40;13.52;;;11.90;99.90;;;;;;4972127;28;20532;-82
2022/04/14 04:30:46;;;;;;;22.02;14.02;;;12.00;99.90;;;;;;4992878;28;20397;-84
2022/04/14 04:33:12;;;;;;;14.43;10.80;;;12.00;99.90;;;;;;4989494;28;20647;-84
2022/04/14 04:35:37;;;;;;;13.35;9.40;;;11.80;99.90;;;;;;4976326;28;20619;-84
2022/04/14 04:38:04;;;;;;;15.93;11.65;;;12.00;99.90;;;;;;4988029;28;20052;-85
2022/04/14 04:40:30;;;;;;;22.52;14.73;;;12.00;99.90;;;;;;4989382;28;20033;-84
2022/04/14 04:42:55;;;;;;;16.95;11.45;;;11.90;99.90;;;;;;4991114;28;20041;-82
2022/04/14 04:45:21;;;;;;;21.13;14.10;;;12.50;99.90;;;;;;4976375;28;20408;-82
2022/04/14 04:47:46;;;;;;;17.83;11.90;;;11.90;99.90;;;;;;4974415;28;20037;-82
2022/04/14 04:50:12;;;;;;;17.35;11.18;;;11.90;99.90;;;;;;4975596;28;20026;-82
2022/04/14 04:52:37;;;;;;;16.27;12.48;;;11.90;99.90;;;;;;4975690;28;20462;-82
2022/04/14 04:55:03;;;;;;;23.63;16.05;;;12.00;99.90;;;;;;4975096;28;20045;-84
2022/04/14 04:57:29;;;;;;;20.50;13.93;;;12.00;99.90;;;;;;4976674;28;20029;-85
2022/04/14 04:59:54;;;;;;;27.30;16.65;;;12.00;99.90;;;;;;4992628;28;20059;-84
2022/04/14 05:02:20;;;;;;;26.58;17.17;;;12.00;99.90;;;;;;4969868;28;20022;-84
2022/04/14 05:04:45;;;;;;;25.42;16.92;;;11.90;99.90;;;;;;4993232;28;20045;-84
2022/04/14 05:07:11;;;;;;;23.58;14.88;;;11.90;99.90;;;;;;4996936;28;20568;-84
2022/04/14 05:09:36;;;;;;;18.33;11.68;;;12.00;99.90;;;;;;4994375;28;20053;-84
2022/04/14 05:12:03;;;;;;;19.60;12.77;;;11.90;99.90;;;;;;4984482;28;20402;-84
2022/04/14 05:14:29;;;;;;;19.17;12.80;;;12.00;99.90;;;;;;4992029;28;20088;-81
2022/04/14 05:16:54;;;;;;;20.27;12.60;;;12.00;99.90;;;;;;4993407;28;20037;-81
2022/04/14 05:19:20;;;;;;;21.58;16.63;;;12.00;99.90;;;;;;4993772;28;20118;-81
2022/04/14 05:21:48;;;;;;;25.38;14.57;;;11.30;99.90;;;;;;4977183;28;20132;-82
2022/04/14 05:24:14;;;;;;;19.30;13.93;;;11.90;99.90;;;;;;4996367;28;20030;-82
2022/04/14 05:26:39;;;;;;;22.45;15.60;;;11.90;99.90;;;;;;4983848;28;20413;-82
2022/04/14 05:29:05;;;;;;;14.05;11.27;;;11.90;99.90;;;;;;4977472;28;21438;-82
2022/04/14 05:31:30;;;;;;;19.63;13.43;;;11.80;99.90;;;;;;4984405;28;20021;-82
2022/04/14 05:33:57;;;;;;;19.67;13.90;;;11.90;99.90;;;;;;4976297;28;20041;-82
2022/04/14 05:36:22;;;;;;;15.90;11.38;;;12.00;99.90;;;;;;4983563;28;20037;-82
2022/04/14 05:38:48;;;;;;;23.02;14.30;;;11.90;99.90;;;;;;4996078;28;20437;-82
2022/04/14 05:41:13;;;;;;;19.35;13.55;;;12.00;99.90;;;;;;4992246;28;20030;-82
2022/04/14 05:43:39;;;;;;;26.13;16.58;;;12.00;99.90;;;;;;4994820;28;20044;-81
2022/04/14 05:46:04;;;;;;;17.98;12.77;;;12.60;99.90;;;;;;4988840;28;20030;-83
2022/04/14 05:48:30;;;;;;;14.30;11.20;;;11.90;99.90;;;;;;4995744;28;20029;-82
2022/04/14 05:50:56;;;;;;;19.40;13.10;;;11.90;99.90;;;;;;4976130;28;20029;-82
2022/04/14 05:53:28;;;;;;;20.92;14.55;;;11.90;99.90;;;;;;4976020;28;20129;-82
2022/04/14 05:55:54;;;;;;;29.25;18.33;;;12.00;99.90;;;;;;4977522;28;20029;-82
2022/04/14 05:58:19;;;;;;;25.52;16.80;;;12.00;99.90;;;;;;4979368;28;20041;-82
2022/04/14 06:00:45;;;;;;;32.42;21.25;;;12.00;99.90;;;;;;4994317;28;20037;-82
2022/04/14 06:03:10;;;;;;;28.95;18.77;;;12.00;99.90;;;;;;4990778;28;20026;-82
2022/04/14 06:05:36;;;;;;;31.48;20.98;;;12.00;99.90;;;;;;4994692;28;20034;-82
2022/04/14 06:08:02;;;;;;;30.20;19.95;;;12.20;99.90;;;;;;4971083;28;20034;-82
2022/04/14 06:10:29;;;;;;;34.50;21.42;;;12.10;99.90;;;;;;4977480;28;20404;-82
2022/04/14 06:12:55;;;;;;;21.25;14.68;;;12.30;99.90;;;;;;4975850;28;20033;-83
2022/04/14 06:15:21;;;;;;;39.00;23.70;;;12.20;99.90;;;;;;4979828;28;20044;-82
2022/04/14 06:17:46;;;;;;;26.95;17.95;;;12.20;99.90;;;;;;4978065;28;20030;-82
2022/04/14 06:20:12;;;;;;;30.38;20.10;;;12.00;99.90;;;;;;4979738;28;20049;-83
2022/04/14 06:22:41;;;;;;;40.40;24.35;;;12.30;99.90;;;;;;4981120;28;20056;-82
2022/04/14 06:25:12;;;;;;;21.33;16.15;;;11.90;99.90;;;;;;4996951;28;20057;-82
2022/04/14 06:27:39;;;;;;;31.00;19.20;;;12.30;99.90;;;;;;4995705;28;20202;-82
2022/04/14 06:30:06;;;;;;;32.63;20.13;;;12.30;99.90;;;;;;4974113;28;20092;-82
2022/04/14 06:32:35;;;;;;;28.52;18.02;;;12.20;99.90;;;;;;4979567;28;20072;-82
2022/04/14 06:35:01;;;;;;;27.23;17.65;;;12.30;99.90;;;;;;4990810;28;20062;-82
2022/04/14 06:37:26;;;;;;;27.55;18.63;;;12.30;99.90;;;;;;4992644;28;20068;-82
2022/04/14 06:39:52;;;;;;;36.72;23.80;;;12.50;99.90;;;;;;4979622;28;20487;-82
2022/04/14 06:42:21;;;;;;;26.98;18.45;;;12.40;99.90;;;;;;4979921;28;20470;-82
2022/04/14 06:44:47;;;;;;;34.22;22.60;;;12.80;99.90;;;;;;4982271;28;20044;-83
2022/04/14 06:47:13;;;;;;;37.55;23.30;;;12.60;99.90;;;;;;4995135;28;20034;-82
2022/04/14 06:49:38;;;;;;;25.02;16.55;;;12.70;99.90;;;;;;4976469;28;20050;-83
2022/04/14 06:52:04;;;;;;;33.97;22.60;;;12.70;99.90;;;;;;4973067;28;20064;-82
2022/04/14 06:54:30;;;;;;;25.92;15.98;;;12.80;99.90;;;;;;4971977;28;20046;-82
2022/04/14 06:56:55;;;;;;;35.75;22.95;;;12.90;99.90;;;;;;4995635;28;20214;-82
2022/04/14 06:59:21;;;;;;;31.40;20.90;;;13.00;99.90;;;;;;4982267;28;20037;-82
2022/04/14 07:01:55;;;;;;;34.05;18.63;;;13.00;99.90;;;;;;4992034;28;20387;-82
2022/04/14 07:04:20;;;;;;;30.77;17.80;;;13.10;99.90;;;;;;4992133;28;20038;-82
2022/04/14 07:06:49;;;;;;;30.20;19.92;;;13.20;99.90;;;;;;4965826;28;20088;-82
2022/04/14 07:09:14;;;;;;;27.88;18.33;;;13.20;99.90;;;;;;4990370;28;20125;-82
2022/04/14 07:11:40;;;;;;;33.17;21.00;;;13.30;99.90;;;;;;4979179;28;20124;-82
2022/04/14 07:14:05;;;;;;;42.67;27.15;;;13.40;99.90;;;;;;4977911;28;20112;-82
2022/04/14 07:16:31;;;;;;;28.40;17.65;;;13.40;99.90;;;;;;4989090;28;20429;-82
2022/04/14 07:18:56;;;;;;;31.60;20.08;;;13.00;99.90;;;;;;4973611;28;20410;-82
2022/04/14 07:21:22;;;;;;;26.70;16.20;;;13.70;99.90;;;;;;4972635;28;20084;-82
2022/04/14 07:23:47;;;;;;;35.35;21.83;;;13.80;99.90;;;;;;4993621;28;20037;-82
2022/04/14 07:26:13;;;;;;;39.97;22.02;;;13.60;99.90;;;;;;4980590;28;20041;-82
2022/04/14 07:28:39;;;;;;;35.25;20.83;;;13.60;99.90;;;;;;4980989;28;20105;-83
2022/04/14 07:31:05;;;;;;;50.10;29.50;;;13.60;99.90;;;;;;4989514;28;20033;-82
2022/04/14 07:33:30;;;;;;;31.15;18.50;;;13.50;99.90;;;;;;4991481;28;20038;-82
2022/04/14 07:35:56;;;;;;;39.03;24.80;;;13.60;99.90;;;;;;4975267;28;20030;-82
2022/04/14 07:38:22;;;;;;;32.40;19.65;;;13.70;99.90;;;;;;4994323;28;20107;-82
2022/04/14 07:40:49;;;;;;;31.70;20.33;;;13.60;99.90;;;;;;4978268;28;20037;-82
2022/04/14 07:43:19;;;;;;;30.67;19.60;;;13.60;99.90;;;;;;4974605;28;20091;-82
2022/04/14 07:45:45;;;;;;;33.90;21.33;;;13.60;99.90;;;;;;4978109;28;20035;-82
2022/04/14 07:48:11;;;;;;;33.17;19.88;;;13.00;99.90;;;;;;4975216;28;20437;-82
2022/04/14 07:50:36;;;;;;;29.48;19.73;;;13.20;99.90;;;;;;4973006;28;20049;-82
2022/04/14 07:53:02;;;;;;;32.92;20.92;;;13.60;99.90;;;;;;4994999;28;20117;-82
2022/04/14 07:55:28;;;;;;;48.45;30.02;;;13.70;99.90;;;;;;4980436;28;20176;-82
2022/04/14 07:57:55;;;;;;;39.15;25.65;;;13.80;99.90;;;;;;4982562;28;20117;-82
2022/04/14 08:00:21;;;;;;;39.55;20.85;;;13.90;99.90;;;;;;4977106;28;20390;-82
2022/04/14 08:02:47;;;;;;;44.83;24.42;;;14.60;99.90;;;;;;4993240;28;20033;-82
2022/04/14 08:05:12;;;;;;;40.65;24.02;;;14.10;99.90;;;;;;5013004;28;20041;-82
2022/04/14 08:07:41;;;;;;;53.90;31.00;;;13.90;99.90;;;;;;4971766;28;20044;-82
2022/04/14 08:10:07;;;;;;;55.70;32.30;;;14.60;99.90;;;;;;4972354;28;20034;-82
2022/04/14 08:12:32;;;;;;;44.92;27.75;;;14.80;99.90;;;;;;4990746;28;20519;-81
2022/04/14 08:14:58;;;;;;;41.70;26.15;;;14.90;99.90;;;;;;4983314;28;20041;-82
2022/04/14 08:17:23;;;;;;;57.03;30.85;;;14.50;99.90;;;;;;4975361;28;20053;-82
2022/04/14 08:19:49;;;;;;;46.08;28.35;;;15.70;99.90;;;;;;4994105;28;20446;-82
2022/04/14 08:22:14;;;;;;;65.13;37.67;;;15.70;99.90;;;;;;4975582;28;20042;-82
2022/04/14 08:24:40;;;;;;;48.35;30.40;;;16.40;99.90;;;;;;4981566;28;20462;-82
2022/04/14 08:27:05;;;;;;;51.25;29.40;;;15.80;99.90;;;;;;4972282;28;20022;-81
2022/04/14 08:29:31;;;;;;;50.20;30.08;;;16.00;99.90;;;;;;4993115;28;20135;-83
2022/04/14 08:31:57;;;;;;;49.85;30.85;;;16.50;99.90;;;;;;4974115;28;20036;-82
2022/04/14 08:34:23;;;;;;;54.63;32.38;;;16.40;99.90;;;;;;4980392;28;20497;-82
2022/04/14 08:36:52;;;;;;;48.83;28.95;;;16.80;99.90;;;;;;4992656;28;20022;-82
2022/04/14 08:39:17;;;;;;;48.30;27.85;;;16.80;99.90;;;;;;4978722;28;20026;-82
2022/04/14 08:41:45;;;;;;;45.28;29.02;;;17.00;99.90;;;;;;4997921;28;20114;-82
2022/04/14 08:44:10;;;;;;;52.65;34.03;;;17.30;99.90;;;;;;4992479;28;20096;-82
2022/04/14 08:46:36;;;;;;;46.13;29.55;;;17.60;99.90;;;;;;4992905;28;20029;-82
2022/04/14 08:49:01;;;;;;;53.30;33.47;;;17.40;99.90;;;;;;4975778;28;20088;-82
2022/04/14 08:51:28;;;;;;;51.67;31.67;;;17.40;99.90;;;;;;4998120;28;20048;-82
2022/04/14 08:53:54;;;;;;;46.28;28.25;;;17.30;99.90;;;;;;4979302;28;20037;-82
2022/04/14 08:56:19;;;;;;;53.75;34.15;;;17.50;99.90;;;;;;4993621;28;20434;-82
2022/04/14 08:58:45;;;;;;;40.95;28.13;;;17.50;99.90;;;;;;4993732;28;20053;-81
2022/04/14 09:01:12;;;;;;;45.40;30.70;;;18.00;99.90;;;;;;4979048;28;20034;-81
2022/04/14 09:03:38;;;;;;;42.20;26.70;;;17.90;99.90;;;;;;4975919;28;20676;-82
2022/04/14 09:06:04;;;;;;;50.22;31.88;;;18.00;99.90;;;;;;4981523;28;20048;-82
2022/04/14 09:08:29;;;;;;;44.47;29.42;;;18.40;99.90;;;;;;4990842;28;20034;-82
2022/04/14 09:10:55;;;;;;;42.10;29.75;;;18.70;99.90;;;;;;4978022;28;20113;-82
2022/04/14 09:13:20;;;;;;;51.58;34.58;;;18.70;99.90;;;;;;4988657;28;20030;-84
2022/04/14 09:15:49;;;;;;;54.33;35.92;;;18.80;99.90;;;;;;4979893;28;20030;-83
2022/04/14 09:18:14;;;;;;;44.70;31.27;;;18.40;99.90;;;;;;4992982;28;20148;-84
2022/04/14 09:20:42;;;;;;;41.70;29.05;;;18.70;99.90;;;;;;4980806;28;20519;-84
2022/04/14 09:23:10;;;;;;;39.00;28.48;;;18.80;99.90;;;;;;4994906;28;20371;-84
2022/04/14 09:25:36;;;;;;;40.72;29.65;;;18.80;99.90;;;;;;5009995;28;20037;-84
2022/04/14 09:28:11;;;;;;;42.92;28.00;;;18.60;99.90;;;;;;4977250;28;20029;-84
2022/04/14 09:30:36;;;;;;;36.60;25.05;;;19.00;99.90;;;;;;4994626;28;20041;-84
2022/04/14 09:33:02;;;;;;;38.42;27.38;;;19.00;99.90;;;;;;4982092;28;20038;-84
2022/04/14 09:35:31;;;;;;;31.58;22.10;;;19.10;99.90;;;;;;4977062;28;20697;-84
2022/04/14 09:38:13;;;;;;;28.70;18.80;;;19.20;99.90;;;;;;4979880;28;20044;-84
2022/04/14 09:40:39;;;;;;;29.85;21.63;;;19.70;99.90;;;;;;4982662;28;20037;-84
2022/04/14 09:43:07;;;;;;;35.45;26.73;;;19.50;99.90;;;;;;4992462;28;20036;-84
2022/04/14 09:45:33;;;;;;;35.83;25.67;;;19.50;99.90;;;;;;4975009;28;20044;-84
2022/04/14 09:48:14;;;;;;;34.97;26.92;;;19.60;99.90;;;;;;4977855;28;20038;-83
2022/04/14 09:50:40;;;;;;;35.15;26.38;;;19.50;99.90;;;;;;4982482;28;20237;-83
2022/04/14 09:53:09;;;;;;;38.13;30.33;;;19.80;99.90;;;;;;4993169;28;20080;-84
2022/04/14 09:55:38;;;;;;;40.20;31.23;;;19.90;99.90;;;;;;4980768;28;20083;-84
2022/04/14 09:58:15;;;;;;;38.70;30.70;;;20.10;99.90;;;;;;4989645;28;20557;-84
2022/04/14 10:00:47;;;;;;;35.28;26.92;;;20.30;99.90;;;;;;4979411;28;20107;-84
2022/04/14 10:03:16;;;;;;;40.45;29.90;;;20.50;99.90;;;;;;4975737;28;20121;-84
2022/04/14 10:05:44;;;;;;;38.30;27.85;;;20.40;99.90;;;;;;4976098;28;20411;-84
2022/04/14 10:08:10;;;;;;;38.67;28.67;;;20.60;99.90;;;;;;4973392;28;20040;-84
2022/04/14 10:10:37;;;;;;;43.17;32.47;;;20.60;99.90;;;;;;4975658;28;20626;-84
2022/04/14 10:13:12;;;;;;;42.78;32.88;;;20.60;99.90;;;;;;4994733;28;20512;-84
2022/04/14 10:15:42;;;;;;;43.50;32.58;;;20.70;99.90;;;;;;4991755;28;20030;-83
2022/04/14 10:18:15;;;;;;;35.15;25.20;;;20.70;99.90;;;;;;4966884;28;20062;-84
2022/04/14 10:20:44;;;;;;;31.63;22.83;;;21.00;99.90;;;;;;4993362;28;20038;-84
2022/04/14 10:23:11;;;;;;;36.03;29.40;;;21.40;99.90;;;;;;4992995;28;20045;-85
2022/04/14 10:25:39;;;;;;;34.20;25.92;;;21.30;99.90;;;;;;4958398;28;20034;-85
2022/04/14 10:28:15;;;;;;;34.75;22.77;;;21.40;99.90;;;;;;4989568;28;20078;-85
2022/04/14 10:30:45;;;;;;;41.33;29.75;;;21.40;99.90;;;;;;4986377;28;20080;-85
2022/04/14 10:33:12;;;;;;;38.33;29.00;;;21.70;99.90;;;;;;4979102;28;21053;-85
2022/04/14 10:35:37;;;;;;;44.65;33.08;;;21.80;99.90;;;;;;4971457;28;20041;-85
2022/04/14 10:38:29;;;;;;;35.90;26.75;;;21.70;99.90;;;;;;4978890;28;20029;-85
2022/04/14 10:41:13;;;;;;;34.13;25.33;;;21.80;99.90;;;;;;4986765;28;20044;-85
2022/04/14 10:43:43;;;;;;;35.95;26.83;;;21.90;99.90;;;;;;4980896;28;20497;-85
2022/04/14 10:46:08;;;;;;;34.63;26.67;;;21.80;99.90;;;;;;4987160;28;20041;-84
2022/04/14 10:48:35;;;;;;;38.35;28.77;;;21.80;99.90;;;;;;4982150;28;20504;-84
2022/04/14 10:51:27;;;;;;;29.92;23.13;;;22.30;99.90;;;;;;4979019;28;20398;-85
2022/04/14 10:54:06;;;;;;;30.60;22.25;;;21.60;99.90;;;;;;4987819;28;20034;-85
2022/04/14 10:56:34;;;;;;;31.25;24.58;;;21.70;99.90;;;;;;4978365;28;20030;-84
2022/04/14 10:59:12;;;;;;;26.55;20.33;;;21.60;99.90;;;;;;5007113;28;20747;-85
2022/04/14 11:01:57;;;;;;;20.92;16.05;;;21.60;99.90;;;;;;4981417;28;20054;-85
2022/04/14 11:04:42;;;;;;;21.13;16.58;;;21.70;99.90;;;;;;5001896;28;20465;-85
2022/04/14 11:07:09;;;;;;;25.58;17.48;;;21.60;99.90;;;;;;4981908;28;20030;-85
2022/04/14 11:09:38;;;;;;;24.83;17.52;;;21.40;99.90;;;;;;4958738;28;20080;-84
2022/04/14 11:12:04;;;;;;;24.58;17.70;;;21.20;99.90;;;;;;5010704;28;20466;-85
2022/04/14 11:14:34;;;;;;;24.60;18.85;;;21.10;99.90;;;;;;4991403;28;20030;-85
2022/04/14 11:17:00;;;;;;;25.17;18.73;;;21.00;99.90;;;;;;4976480;28;20030;-85
2022/04/14 11:19:27;;;;;;;24.85;18.45;;;21.00;99.90;;;;;;4976546;28;20041;-85
2022/04/14 11:22:02;;;;;;;20.13;15.23;;;20.90;99.90;;;;;;4967926;28;20037;-85
2022/04/14 11:24:38;;;;;;;18.60;14.20;;;20.90;99.90;;;;;;4990217;28;20030;-85
2022/04/14 11:27:26;;;;;;;18.52;13.10;;;20.80;99.90;;;;;;5010269;28;20486;-84
2022/04/14 11:29:57;;;;;;;14.77;11.73;;;20.90;99.90;;;;;;4974969;28;20026;-84
2022/04/14 11:32:38;;;;;;;15.15;11.65;;;21.10;99.90;;;;;;4997136;28;20553;-85
2022/04/14 11:35:16;;;;;;;13.13;9.98;;;21.20;99.90;;;;;;4990570;28;20117;-84
2022/04/14 11:37:43;;;;;;;12.77;10.85;;;21.30;99.90;;;;;;4970989;28;20026;-85
2022/04/14 11:40:12;;;;;;;10.35;6.47;;;21.50;99.90;;;;;;4987845;28;20494;-85
2022/04/14 11:42:38;;;;;;;13.02;8.38;;;21.70;99.90;;;;;;4986285;28;20026;-85
2022/04/14 11:45:04;;;;;;;15.10;11.80;;;22.00;99.90;;;;;;4976754;28;20445;-85
2022/04/14 11:47:38;;;;;;;13.00;10.50;;;22.60;99.90;;;;;;4992658;28;20040;-85
2022/04/14 11:50:06;;;;;;;15.32;6.72;;;22.90;99.90;;;;;;4989259;28;20033;-85
2022/04/14 11:52:32;;;;;;;7.38;6.03;;;23.10;99.30;;;;;;4974814;28;20469;-85
2022/04/14 11:54:58;;;;;;;5.95;4.43;;;23.30;98.40;;;;;;4976653;28;20038;-85
2022/04/14 11:57:28;;;;;;;6.10;4.63;;;23.20;99.90;;;;;;4973774;28;20040;-86
2022/04/14 11:59:56;;;;;;;8.00;4.65;;;23.20;99.90;;;;;;4978332;28;20116;-86
2022/04/14 12:02:23;;;;;;;5.07;4.00;;;23.30;99.90;;;;;;4993048;28;20057;-86
2022/04/14 12:04:51;;;;;;;7.80;4.85;;;23.80;99.20;;;;;;4991200;28;20073;-86
2022/04/14 12:07:17;;;;;;;5.07;4.30;;;24.20;96.20;;;;;;4980720;28;20040;-86
2022/04/14 12:09:43;;;;;;;5.80;4.25;;;24.30;99.00;;;;;;4970408;28;20025;-86
2022/04/14 12:12:12;;;;;;;4.03;3.63;;;24.50;92.30;;;;;;4996177;28;20026;-86
2022/04/14 12:14:50;;;;;;;5.15;3.92;;;24.80;93.60;;;;;;4993619;28;20117;-86
2022/04/14 12:17:24;;;;;;;5.45;3.47;;;24.80;95.90;;;;;;4980145;28;20036;-86
2022/04/14 12:19:55;;;;;;;5.80;5.03;;;24.70;94.10;;;;;;4937462;28;20034;-86
2022/04/14 12:22:36;;;;;;;6.43;5.15;;;24.90;96.30;;;;;;4991587;28;20447;-86
2022/04/14 12:25:09;;;;;;;8.27;6.40;;;24.70;96.60;;;;;;4964510;28;20037;-86
2022/04/14 12:27:35;;;;;;;8.50;6.63;;;24.60;96.30;;;;;;4969952;28;20088;-85
2022/04/14 12:30:11;;;;;;;11.45;8.00;;;24.50;96.20;;;;;;4970774;28;20045;-86